Kezdőlap
METAR-TAF:

METAR-TAF

Repülőterek :

Washington Municipal Airport

Washington, Iowa, Amerikai Egyesült Államok

földrajzi szélesség: 41-17N, földrajzi hosszúság: 091-40W, magasság: 230 m

Jelenlegi meteorológiai megfigyelések

A jelentés 5 perccel ezelõtt készült, 14:35 UTC
Északnyugati szél 14 kt széllökések: 20 kt
Hőmérséklet 8°C
Páratartalom 81%
Légköri nyomás 1008 hPa
Látótávolság: 16.1 km
Borult 2000 lábon

METAR: KAWG 181435Z AUTO 31014G20KT 10SM OVC020 08/05 A2976 RMK AO2

Idő: 09:40 (14:40 UTC)


TAF: hiányzik

Meteorológiai megfigyelések és előrejelzések több, mint 4000 repülőtéren (METAR és TAF jelentéseket).

A térképen piros és sárga pontok jelzik az elérhető meteorológiai állomásokat.

Mozgassa az egeret a pont fölött, hogy megjelenjen az állomás neve.

Azután kattintson az időjárási megfigyelések és előrejelzések megtekintéséhez.

A térkép megváltoztatása: kattintson a fekete keresztel jelölt zöld gombra ráközelítéshez, a vonallal jelölt zöld gombra távolításhoz, vagy a zöld nyilakra a szomszédos térképek eléréséhez.


METAR-TAF: